createdAt,value
2023-12-27T00:02:16.749Z,100399.78
2023-12-27T00:07:18.057Z,100398.03
2023-12-27T00:12:19.348Z,100409.88
2023-12-27T00:17:20.698Z,100415.88
2023-12-27T00:22:21.982Z,100422.25
2023-12-27T00:27:23.361Z,100434.88
2023-12-27T00:32:24.769Z,100443.44
2023-12-27T00:37:26.100Z,100448.25
2023-12-27T00:42:27.478Z,100453.06
2023-12-27T00:47:28.860Z,100451.03
2023-12-27T00:52:30.167Z,100462.63
2023-12-27T00:57:31.550Z,100464.22
2023-12-27T01:02:32.945Z,100473.84
2023-12-27T01:07:34.362Z,100490.91
2023-12-27T01:12:35.689Z,100493.09
2023-12-27T01:17:37.052Z,100493.41
2023-12-27T01:22:38.393Z,100505.31
2023-12-27T01:27:39.745Z,100512.13
2023-12-27T01:32:41.180Z,100509.91
2023-12-27T01:37:43.371Z,100519.63
2023-12-27T01:42:44.672Z,100543.06
2023-12-27T01:47:46.348Z,100537.16
2023-12-27T01:52:47.950Z,100542.50
2023-12-27T01:57:49.380Z,100534.94
2023-12-27T02:02:50.735Z,100551.78
2023-12-27T02:07:52.107Z,100546.19
2023-12-27T02:12:53.659Z,100553.44
2023-12-27T02:17:55.155Z,100553.78
2023-12-27T02:22:56.687Z,100553.47
2023-12-27T02:27:58.205Z,100561.78
2023-12-27T02:32:59.831Z,100568.16
2023-12-27T02:38:01.493Z,100568.50
2023-12-27T02:43:02.850Z,100570.06
2023-12-27T02:48:04.690Z,100575.75
2023-12-27T02:53:06.435Z,100569.94
2023-12-27T02:58:07.740Z,100570.34
2023-12-27T03:03:09.097Z,100578.69
2023-12-27T03:08:10.405Z,100582.78
2023-12-27T03:13:11.701Z,100577.78
2023-12-27T03:18:13.153Z,100576.66
2023-12-27T03:23:14.585Z,100577.25
2023-12-27T03:28:15.906Z,100577.97
2023-12-27T03:33:17.381Z,100577.09
2023-12-27T03:38:18.740Z,100595.31
2023-12-27T03:43:20.162Z,100600.22
2023-12-27T03:48:21.763Z,100599.22
2023-12-27T03:53:23.147Z,100606.47
2023-12-27T03:58:24.444Z,100617.16
2023-12-27T04:03:25.972Z,100608.69
2023-12-27T04:08:27.328Z,100611.34
2023-12-27T04:13:28.640Z,100615.66
2023-12-27T04:18:30.042Z,100610.28
2023-12-27T04:23:31.383Z,100623.78
2023-12-27T04:28:33.133Z,100632.06
2023-12-27T04:33:34.639Z,100620.47
2023-12-27T04:38:36.017Z,100617.03
2023-12-27T04:43:37.393Z,100610.09
2023-12-27T04:48:38.854Z,100615.00
2023-12-27T04:53:40.260Z,100614.06
2023-12-27T04:58:41.770Z,100615.59
2023-12-27T05:03:45.455Z,100616.34
2023-12-27T05:08:46.799Z,100617.75
2023-12-27T05:13:48.094Z,100622.50
2023-12-27T05:18:49.448Z,100627.09
2023-12-27T05:23:50.781Z,100632.06
2023-12-27T05:28:52.090Z,100642.38
2023-12-27T05:33:53.629Z,100636.56
2023-12-27T05:38:54.980Z,100639.41
2023-12-27T05:43:56.339Z,100638.13
2023-12-27T05:48:58.254Z,100655.47
2023-12-27T05:53:59.691Z,100652.50
2023-12-27T05:59:01.008Z,100651.78
2023-12-27T06:04:05.011Z,100661.69
2023-12-27T06:09:06.863Z,100664.31
2023-12-27T06:14:08.223Z,100660.66
2023-12-27T06:19:09.669Z,100671.31
2023-12-27T06:24:11.090Z,100672.03
2023-12-27T06:29:12.403Z,100679.56
2023-12-27T06:34:13.884Z,100684.34
2023-12-27T06:39:15.328Z,100691.31
2023-12-27T06:44:16.655Z,100690.31
2023-12-27T06:49:18.117Z,100687.69
2023-12-27T06:54:19.593Z,100687.50
2023-12-27T06:59:20.998Z,100698.28
2023-12-27T07:04:22.296Z,100695.72
2023-12-27T07:09:23.619Z,100691.06
2023-12-27T07:14:24.950Z,100708.97
2023-12-27T07:19:26.478Z,100705.47
2023-12-27T07:24:27.817Z,100709.97
2023-12-27T07:29:29.124Z,100718.13
2023-12-27T07:34:30.659Z,100711.53
2023-12-27T07:39:33.982Z,100722.41
2023-12-27T07:44:35.414Z,100718.38
2023-12-27T07:49:36.851Z,100728.69
2023-12-27T07:54:38.468Z,100728.50
2023-12-27T07:59:39.776Z,100732.44
2023-12-27T08:04:41.097Z,100733.91
2023-12-27T08:09:42.523Z,100727.66
2023-12-27T08:14:44.464Z,100743.41
2023-12-27T08:19:45.819Z,100750.28
2023-12-27T08:24:47.211Z,100756.19
2023-12-27T08:29:48.564Z,100759.38
2023-12-27T08:34:50.603Z,100756.16
2023-12-27T08:39:51.972Z,100771.69
2023-12-27T08:44:53.665Z,100761.69
2023-12-27T08:49:56.349Z,100759.94
2023-12-27T08:54:57.990Z,100770.41
2023-12-27T08:59:59.316Z,100777.84
2023-12-27T09:05:00.683Z,100776.59
2023-12-27T09:10:02.028Z,100770.41
2023-12-27T09:15:03.652Z,100766.69
2023-12-27T09:20:08.464Z,100779.75
2023-12-27T09:25:13.355Z,100771.91
2023-12-27T09:30:14.766Z,100758.47
2023-12-27T09:35:16.226Z,100760.22
2023-12-27T09:40:17.515Z,100758.69
2023-12-27T09:45:19.062Z,100757.38
2023-12-27T09:50:20.836Z,100748.59
2023-12-27T09:55:22.121Z,100738.16
2023-12-27T10:00:23.851Z,100722.34
2023-12-27T10:05:31.035Z,100716.25
2023-12-27T10:10:33.832Z,100704.78
2023-12-27T10:15:35.132Z,100686.50
2023-12-27T10:20:39.846Z,100683.69
2023-12-27T10:25:41.536Z,100694.69
2023-12-27T10:30:43.024Z,100686.75
2023-12-27T10:35:44.381Z,100687.69
2023-12-27T10:40:45.690Z,100669.84
2023-12-27T10:45:47.077Z,100659.66
2023-12-27T10:50:48.437Z,100664.66
2023-12-27T10:55:50.218Z,100655.13
2023-12-27T11:00:51.688Z,100642.00
2023-12-27T11:05:53.169Z,100636.81
2023-12-27T11:10:54.757Z,100622.44
2023-12-27T11:15:56.102Z,100625.34
2023-12-27T11:20:58.123Z,100622.25
2023-12-27T11:26:01.125Z,100626.66
2023-12-27T11:31:02.608Z,100615.25
2023-12-27T11:36:04.815Z,100592.19
2023-12-27T11:41:07.115Z,100578.22
2023-12-27T11:46:08.528Z,100565.72
2023-12-27T11:51:45.355Z,100547.03
2023-12-27T11:56:46.660Z,100552.38
2023-12-27T12:01:48.009Z,100542.06
2023-12-27T12:06:55.661Z,100543.22
2023-12-27T12:11:57.142Z,100535.50
2023-12-27T12:16:58.432Z,100528.66
2023-12-27T12:21:59.751Z,100509.25
2023-12-27T12:27:01.195Z,100519.50
2023-12-27T12:32:02.586Z,100511.22
2023-12-27T12:37:04.119Z,100506.44
2023-12-27T12:42:05.549Z,100499.19
2023-12-27T12:47:06.928Z,100468.91
2023-12-27T12:52:08.552Z,100465.06
2023-12-27T12:57:10.056Z,100472.16
2023-12-27T13:02:11.606Z,100445.78
2023-12-27T13:07:12.936Z,100440.78
2023-12-27T13:12:14.289Z,100448.91
2023-12-27T13:17:15.655Z,100432.47
2023-12-27T13:22:16.932Z,100431.09
2023-12-27T13:27:18.774Z,100422.00
2023-12-27T13:32:20.089Z,100421.41
2023-12-27T13:37:22.774Z,100423.38
2023-12-27T13:42:24.130Z,100414.13
2023-12-27T13:47:25.667Z,100407.75
2023-12-27T13:52:27.017Z,100383.34
2023-12-27T13:57:28.598Z,100386.59
2023-12-27T14:02:30.040Z,100377.44
2023-12-27T14:07:31.560Z,100357.81
2023-12-27T14:12:32.904Z,100368.66
2023-12-27T14:17:34.363Z,100366.91
2023-12-27T14:22:35.680Z,100361.75
2023-12-27T14:27:38.065Z,100358.19
2023-12-27T14:32:39.646Z,100340.91
2023-12-27T14:37:41.483Z,100327.00
2023-12-27T14:42:43.790Z,100316.88
2023-12-27T14:47:45.995Z,100304.44
2023-12-27T14:52:47.955Z,100305.78
2023-12-27T14:57:50.135Z,100305.03
2023-12-27T15:02:51.525Z,100311.41
2023-12-27T15:07:52.821Z,100313.22
2023-12-27T15:12:54.222Z,100310.16
2023-12-27T15:17:55.842Z,100306.56
2023-12-27T15:23:01.608Z,100315.81
2023-12-27T15:28:05.540Z,100313.16
2023-12-27T15:33:07.162Z,100309.22
2023-12-27T15:38:08.611Z,100310.81
2023-12-27T15:43:09.901Z,100289.13
2023-12-27T15:48:11.356Z,100297.59
2023-12-27T15:53:12.725Z,100290.34
2023-12-27T15:58:14.518Z,100286.28
2023-12-27T16:03:15.917Z,100293.88
2023-12-27T16:08:17.278Z,100283.13
2023-12-27T16:13:18.618Z,100277.00
2023-12-27T16:18:20.206Z,100266.94
2023-12-27T16:23:21.868Z,100258.78
2023-12-27T16:28:23.201Z,100266.59
2023-12-27T16:33:25.165Z,100245.09
2023-12-27T16:38:26.628Z,100230.78
2023-12-27T16:43:28.572Z,100210.88
2023-12-27T16:48:30.036Z,100208.31
2023-12-27T16:53:31.429Z,100219.09
2023-12-27T16:58:32.729Z,100214.06
2023-12-27T17:03:34.491Z,100192.59
2023-12-27T17:08:35.835Z,100190.31
2023-12-27T17:13:37.197Z,100193.84
2023-12-27T17:18:38.779Z,100184.63
2023-12-27T17:23:40.189Z,100180.34
2023-12-27T17:28:41.524Z,100169.78
2023-12-27T17:33:42.978Z,100157.69
2023-12-27T17:38:44.370Z,100147.25
2023-12-27T17:43:45.651Z,100122.31
2023-12-27T17:48:47.092Z,100125.63
2023-12-27T17:53:48.499Z,100116.66
2023-12-27T17:58:49.794Z,100080.56
2023-12-27T18:03:51.195Z,100082.22
2023-12-27T18:08:52.616Z,100098.13
2023-12-27T18:13:55.083Z,100077.97
2023-12-27T18:18:59.525Z,100074.41
2023-12-27T18:24:01.218Z,100078.66
2023-12-27T18:29:03.354Z,100058.72
2023-12-27T18:34:05.121Z,100043.44
2023-12-27T18:39:06.567Z,100045.69
2023-12-27T18:44:10.416Z,100055.31
2023-12-27T18:49:11.889Z,100039.78
2023-12-27T18:54:13.525Z,100034.31
2023-12-27T18:59:15.024Z,100032.28
2023-12-27T19:04:16.480Z,100036.91
2023-12-27T19:09:18.331Z,100031.22
2023-12-27T19:14:20.152Z,100032.28
2023-12-27T19:19:24.921Z,100033.69
2023-12-27T19:24:26.754Z,100021.16
2023-12-27T19:29:28.302Z,100019.59
2023-12-27T19:34:29.687Z,100007.72
2023-12-27T19:39:31.061Z,99986.72
2023-12-27T19:44:32.973Z,99998.97
2023-12-27T19:49:34.350Z,99977.72
2023-12-27T19:54:35.785Z,99981.63
2023-12-27T19:59:40.218Z,99975.56
2023-12-27T20:04:41.571Z,99954.09
2023-12-27T20:09:42.954Z,99956.16
2023-12-27T20:14:44.270Z,99946.75
2023-12-27T20:19:45.631Z,99938.09
2023-12-27T20:24:47.796Z,99937.88
2023-12-27T20:29:51.644Z,99930.75
2023-12-27T20:34:57.572Z,99925.03
2023-12-27T20:40:00.361Z,99935.38
2023-12-27T20:45:01.741Z,99926.97
2023-12-27T20:50:04.065Z,99931.13
2023-12-27T20:55:05.908Z,99931.09
2023-12-27T21:00:07.477Z,99927.53
2023-12-27T21:05:09.054Z,99917.47
2023-12-27T21:10:10.472Z,99903.19
2023-12-27T21:15:11.822Z,99908.44
2023-12-27T21:20:13.264Z,99906.78
2023-12-27T21:25:14.543Z,99904.16
2023-12-27T21:30:16.073Z,99900.00
2023-12-27T21:35:17.519Z,99899.19
2023-12-27T21:40:18.828Z,99896.97
2023-12-27T21:45:20.804Z,99887.09
2023-12-27T21:50:22.110Z,99899.66
2023-12-27T21:55:23.482Z,99893.41
2023-12-27T22:00:24.807Z,99888.03
2023-12-27T22:05:26.174Z,99889.06
2023-12-27T22:10:27.481Z,99896.22
2023-12-27T22:15:28.858Z,99899.69
2023-12-27T22:20:30.234Z,99904.28
2023-12-27T22:25:31.581Z,99908.66
2023-12-27T22:30:32.953Z,99912.50
2023-12-27T22:35:34.310Z,99922.94
2023-12-27T22:40:35.995Z,99907.59
2023-12-27T22:45:37.317Z,99891.81
2023-12-27T22:50:38.650Z,99887.31
2023-12-27T22:55:39.936Z,99877.47
2023-12-27T23:00:41.385Z,99876.75
2023-12-27T23:05:42.854Z,99873.47
2023-12-27T23:10:44.287Z,99879.28
2023-12-27T23:15:45.589Z,99865.00
2023-12-27T23:20:47.033Z,99844.88
2023-12-27T23:25:48.359Z,99842.63
2023-12-27T23:30:49.854Z,99837.72
2023-12-27T23:35:51.213Z,99836.06
2023-12-27T23:40:52.536Z,99829.25
2023-12-27T23:45:53.909Z,99826.84
2023-12-27T23:50:56.684Z,99818.97
2023-12-27T23:55:59.200Z,99816.28
